ImprimablePdf
Running Tour > 2011 - Antwerpen, 17/04/2011, BEL - DVV Antwerp 10 Miles
Liste des rapports > DVV Antwerp 10 Miles - Classement + Video
Recherche: Page: 1 2 3 4 5 6 7 8 9 10 11 12 13 14 15 16 17 18 19 20 21 22 [23] 24 25 26 27 28 29 30 31 32 33 34 35 36 37 38 39 40 41 42 43 44 45 46 47 48 49 50 51 52 53 54 55 56 57 58 59 60 61 62 63 64 65 66 67 68 69 70 71 72 73
14547 Entrées
 
Les réclamations ne sont plus acceptées, les résultats sont considérés comme définitifs.
Catégorie
PosNrNomIOCEquipeTempsTkmMoy.RangNomLocalité
4401.9643FCHIN ClaudiaBELPVDA-PTB1:24:095:14 11.48-BRUSSEL 8
4402.16527VERHOOGEN Geert1:24:095:14 11.481902SEH
4403.6417VANHOOF KrisBEL1:24:095:14 11.48548M40MOL
4404.4092NAVEST GepNLDBURGER SERVICES1:24:095:14 11.48549M40VLISSINGEN
4405.5591DIRX LievenBEL1:24:095:14 11.48437M45OUD-TURNHOUT
4406.365PEETERS JeroenBEL1:24:105:14 11.481903SEHCOMBE ST NICHOL
4407.5581VAN GAEL PeterBEL1:24:105:14 11.47438M45RAVELS
4408.11572NR 11572 XXX1:24:105:14 11.47-
4409.6563FDE MUYNCK ElineBEL1:24:105:14 11.47133SEFELSENE
4410.4817VERLINDEN CarlBEL1:24:105:14 11.47278M50LIER
4411.13486HEMDANE FelixBEL1:24:115:14 11.471904SEH
4412.11569NR 11569 XXX1:24:115:14 11.47-
4413.2692FRENSEL MartienBEL1:24:115:14 11.47439M45NIEL-BY-AS
4414.13234ZIZAOUI AhmedBEL1:24:115:14 11.47550M40ANTWERPEN 1
4415.10264DE BOECK GlennBELEUROPORTS1:24:115:14 11.47-X
4416.15599MATTHEEUSEN Glen1:24:115:14 11.471905SEH
4417.9211VAN DE VELDE HendrikBEL1:24:115:14 11.47440M45DEINZE
4418.19219VERMEULEN GeertBEL1:24:115:14 11.47441M45
4419.5695APERS LucBEL1:24:115:14 11.471906SEHMOERBEKE-WAAS
4420.15339VAN GYSEL Marc1:24:115:14 11.47442M45
4421.2823PEETERS JasperBEL1:24:115:14 11.471907SEHBEERSE
4422.13213VAN LIERDE BrunoBEL1:24:125:14 11.47443M45MERKSEM (ANTWER
4423.15680DE WILDE Herman1:24:125:14 11.47107M55
4424.18947DE SCHUTTER BartBEL1:24:125:14 11.47543M35
4425.14237CANTANTE BrunoBEL1:24:125:14 11.47544M35
4426.15803WILLLEMEN Jasper1:24:125:14 11.47-
4427.12962HELLEMANS AxelBEL1:24:135:14 11.471908SEHPUURS
4428.2016BROODS BasBEL1:24:135:14 11.47545M35
4429.3468DE VOOGHT GuyBEL1:24:135:14 11.47108M55BRASSCHAAT
4430.5726STROOIJ MartijnNLD1:24:145:14 11.47551M40AMSTERDAM
4431.3889VAN LAER JorgenBEL1:24:145:14 11.471909SEHZOERSEL
4432.7632VAN HILST DimitriBELVINCOTTE1:24:145:14 11.47552M40ZONHOVEN
4433.8102BYLOOS ChristopheBEL1:24:145:14 11.47553M40HEUSDEN-ZOLDER
4434.5148FERSCHTMAN MaximNLD1:24:145:14 11.47554M40AMSTELVEEN
4435.3328SMET JoeriBEL1:24:145:14 11.471910SEHSINT-NIKLAAS
4436.3193VANDERKEILEN PeterBEL1:24:145:14 11.47555M40KNOKKE-HEIST
4437.5475DE MOOR JanBEL1:24:145:14 11.471911SEHHERZELE
4438.15576DOBBELEIR Yannick1:24:145:15 11.461912SEH
4439.3108DESMET BenBEL1:24:155:15 11.461913SEHMORTSEL
4440.14479MOEYS Wouter1:24:155:15 11.461914SEH
4441.16044BRAL Bo1:24:155:15 11.461915SEH
4442.6897VAN HAL PascalBELINDAVER1:24:155:15 11.461916SEHBEVEREN-WAAS
4443.9598GOOSSENS StevenBELERNST & YOUNG1:24:155:15 11.46-STEKENE
4444.14624SEGERS Fila1:24:155:15 11.46-
4445.11821CROLS StevenBELNATEUS1:24:155:15 11.461917SEHAARTSELAAR
4446.4574WIJCKMANS HermanBEL1:24:155:15 11.46444M45HECHTEL
4447.10793FSOMERS PeggyBEL1:24:155:15 11.4647F40KAPELLE OP DEN
4448.2749FEYS GuillaumeBEL1:24:165:15 11.461918SEHGENT
4449.10837HEREIJGERS JohnBEL1:24:165:15 11.461919SEHESSEN
4450.6266BEELDENS TomBEL1:24:165:15 11.461920SEHBERCHEM
4451.15656DE COCK Stefan1:24:165:15 11.46546M35
4452.5236VAN ROY PatrickBEL1:24:165:15 11.46445M45HEIST OP-DEN BE
4453.16639DEWITTE Alex1:24:165:15 11.46556M40
4454.9700PIJNENBURG CorNLDPWC1:24:175:15 11.46-ROSMALEN
4455.9569DE MEY BrechtBELERNST & YOUNG1:24:175:15 11.461921SEHOOSTAKKER
4456.12152THIJSSEN PeterNLDROYAL ESSO CLUB1:24:175:15 11.46279M50BERG EN TERBLYT
4457.4522VAN JOLE JanNLD1:24:175:15 11.46280M50HULST
4458.10054FDAPPER IlseBEL1:24:175:15 11.4651F35ANTWERPEN
4459.4613STAELS BartBEL1:24:175:15 11.461922SEHLUMMEN
4460.7726ADAMS LucBELFABRICOM1:24:175:15 11.46446M45SCHOTEN
4461.14073FVERDYCK IlseBEL1:24:185:15 11.4648F40
4462.11177VAN DESSEL LucBEL1:24:185:15 11.46557M40KAPELLEN (ANTW.
4463.8294MERTENS GeertBELLOK.POLITIE ANT1:24:185:15 11.461923SEHWOMMELGEM
4464.678VERGEYLEN KoenBEL1:24:185:15 11.46558M40PEUTIE
4465.4975FLUYTEN IngridBELFEBELCO1:24:185:15 11.4623F50TURNHOUT
4466.9664BUYSSE TimothyBELPWC1:24:185:15 11.46547M35BORNEM
4467.6280DELKORD MarcBEL1:24:185:15 11.4643M60LAARNE
4468.14738DE NYS AlexanderBEL1:24:185:15 11.461924SEH
4469.2391PICAULY RuudBEL1:24:185:15 11.46559M40BERCHEM
4470.11323SCHOETERS SteveBELNEW HOLLAND AGR1:24:185:15 11.46548M35ZANDHOVEN
4471.8220DECLERCK JohanBEL1:24:195:15 11.46447M45KRUIBEKE
4472.3973DE WALSCHE RikBEL1:24:195:15 11.46549M35ASSENEDE
4473.15953ONZIA Thomas1:24:195:15 11.451925SEH
4474.12322THEUNIS YokoBELLESSIUS1:24:195:15 11.45550M35OLMEN
4475.5773MAILLEUX DenisBEL1:24:195:15 11.451926SEHNIVELLES
4476.14029SCHEPENS WimBEL1:24:195:15 11.45560M40
4477.12502SOVAN VladBEL1:24:205:15 11.451927SEHANTWERPEN 1
4478.5314DE BLENDE NikBEL1:24:205:15 11.45551M35DEINZE
4479.11680VOCHTEN HansBEL1:24:205:15 11.451928SEHBRASSCHAAT
4480.3919FSEYER StephanieBEL1:24:205:15 11.45134SEFWAVRE
4481.19171DE CLERCK ErikBEL1:24:205:15 11.45552M35
4482.11476VERELST BramBEL1:24:205:15 11.451929SEHKALMTHOUT
4483.11088VANHOUCHE Jean-ClaudeBEL1:24:205:15 11.45561M40TERNAT
4484.4620DE PAEPE JohannesBEL1:24:215:15 11.451930SEHZELE
4485.1869VAN NOTEN NickBEL1:24:215:15 11.451931SEHANTWERPEN
4486.3440MONS JoBELFRESENIUS KABI 1:24:215:15 11.45562M40ZOTTEGEM
4487.5914DEMEULENAERE EricBEL1:24:215:15 11.45448M45AARTSELAAR
4488.3410TANG KafungNLD1:24:215:15 11.45563M40AMSTELVEEN
4489.13166LEUKEMANS RudiBEL1:24:215:15 11.45449M45EDEGEM
4490.9687SMET MartijnBELPWC1:24:225:15 11.451932SEHVOLLEZELE
4491.12200BOUWEN LanderBELROYAL ESSO CLUB1:24:225:15 11.451933SEHHERENTALS
4492.13584VAN ROEY DenisBELSEAT1:24:225:15 11.45450M45
4493.4347DENDOOVEN LucBEL1:24:235:15 11.45109M55NINOVE
4494.15986VAN BAVEL Jan1:24:235:15 11.45564M40
4495.9890VERTENTEN BartBEL1:24:235:15 11.45553M35MERELBEKE
4496.4010SIMONS DirkBEL1:24:235:15 11.44281M50MORTSEL
4497.7810DE PAUW AlexisBEL1:24:235:15 11.441934SEHANTWERPEN
4498.4344LAUWERS ArthurBEL1:24:235:15 11.441935SEHDUFFEL
4499.18910FVAN UYTVEN NadineBEL1:24:235:15 11.4449F40
4500.7925VAN DEN LANGENBERGH KurtBELHP1:24:235:15 11.44554M35MECHELEN
4501.3686JANSEN TomBELEUBELIUS1:24:245:15 11.44565M40PELLENBERG
4502.4248FSMET PriyaBEL1:24:245:15 11.44135SEFGRIMBERGEN
4503.2509JANSSEN NielsBEL1:24:245:15 11.44555M35BERCHEM
4504.12299CUYT MarioBELLESSIUS1:24:245:15 11.441936SEHBAZEL
4505.6879STORMS PeterBELJANSSEN CILAG J1:24:245:15 11.44-X
4506.19113MAES GerritBEL1:24:255:15 11.441937SEH
4507.8644VAN HEMELDONCK LudoBELALCATEL - LUCEN1:24:255:15 11.44282M50ST-ATONIUS-ZOER
4508.4357FVAN MOL MiekeBELOXBOW COAL1:24:255:15 11.4424F50HOBOKEN (ANTWER
4509.7192TANSENS PieterBEL1:24:255:15 11.441938SEHHERENTALS
4510.13706MAMPUYS SamBELTOTAL1:24:255:15 11.441939SEH
4511.14281DAEMS Patrick1:24:255:15 11.44-
4512.11667TURE TanjuBEL1:24:265:15 11.44556M35ANTWERPEN
4513.10305FDAEMS LiesBELCD&V - RUN1:24:265:15 11.4450F40KASTERLEE
4514.3086VANHOVE FrankBEL1:24:265:15 11.44566M40WANZELE
4515.14478OERLEMANS Sybren1:24:265:15 11.441940SEH
4516.8096CALLEBAUT BertBEL1:24:265:15 11.441941SEHVLEZENBEEK
4517.5513HUYGHE ThomasBELSGS GROEP BELGI1:24:265:15 11.441942SEHBERCHEM (ANTWER
4518.12745VAN GUCHT SebastiaanBELINTERSOC1:24:275:15 11.441943SEHKONTICH
4519.14331VAN BAELEN FrederikBELVREDESEILANDEN1:24:275:15 11.44451M45HOLSBEEK
4520.8155VANDERHOEVEN BartBEL1:24:285:15 11.431944SEHMECHELEN
4521.4504CLYMANS WimBEL1:24:285:15 11.431945SEHSINT LAMBRECHTS
4522.13408VAN TRICHT OlivierBEL1:24:295:15 11.431946SEH
4523.15941CALLENS Arnaud1:24:295:15 11.431947SEH
4524.15859DELIE Ronny1:24:295:15 11.43567M40
4525.9900VAN DE VYVER LucBELING1:24:295:15 11.43283M50DESTELBERGEN
4526.12100FGEBBINK RoelienBEL1:24:295:15 11.43136SEFMERELBEKE
4527.793VERHULST VaastBEL1:24:305:15 11.431948SEHANTWERPEN
4528.13848FDULLAERT AnnemieBEL1:24:305:15 11.4331F45
4529.14819FJANSSEN Linda1:24:305:15 11.4332F45
4530.7784BOYEN BenBEL1:24:305:15 11.431949SEHTIENEN
4531.11588URQUIZU EddyBEL1:24:315:16 11.43110M55DEURNE (ANTWERP
4532.8299SPIESSCHAERT BrechtBELLOK.POLITIE ANT1:24:315:16 11.431950SEHLICHTAART
4533.10606LINNERZ FrankBEL1:24:315:16 11.43568M40BRUSSEL
4534.19452ROOMS BenBEL1:24:325:16 11.431951SEHBEVEREN-WAAS
4535.2949GOBEYN StevenBEL1:24:325:16 11.431952SEHSCHELLE
4536.18766FDANIELS JetBEL1:24:325:16 11.4225F50
4537.11987STORMS JanBEL1:24:325:16 11.42452M45ZWIJNDRECHT
4538.19004CLAES TimBEL1:24:335:16 11.42-
4539.336FDANIELS NancyBEL1:24:335:16 11.4251F40MARBAIS
4540.4345VERRYDT FransBEL1:24:335:16 11.421M70ANTWERPEN
4541.15440DE NIJS Bjorn1:24:345:16 11.421953SEH
4542.6684SCHEPENS BjornBEL1:24:345:16 11.42557M35ZELE
4543.10200VERBRUGGEN JeroenBELATLANTIS NV1:24:345:16 11.421954SEHSCHILDE
4544.18905VAN DEN BERG NicoBEL1:24:345:16 11.421955SEH
4545.9239LECLUYSE JurgenBEL1:24:355:16 11.42569M40BRUGGE
4546.14323KERREMANS TomBEL1:24:355:16 11.421956SEHBERCHEM (ANTWER
4547.10213EECKHOUDT WimBELMBG1:24:355:16 11.42570M40DENDERLEEUW
4548.6262VAN EYNDE DonaatBEL1:24:355:16 11.42284M50LOKEREN
4549.15404PLASMANS Jan1:24:355:16 11.421957SEH
4550.3039MULDERS JeroenNLD1:24:355:16 11.421958SEHAMSTERDAM
4551.12750FVAN HUNSEL TineBELINTERSOC1:24:355:16 11.42137SEFALKEN
4552.8383ADRIAENS RoelBELARGENTA1:24:355:16 11.421959SEHHEVERLEE
4553.6735LAUWERIJS PatrickBEL1:24:365:16 11.42571M40ASSE
4554.19127FBAILLIEUL IneBEL1:24:365:16 11.42-
4555.288SCHEPERS PieterBEL1:24:365:16 11.421960SEHVEENENDAAL
4556.3715VAN TENDELOO KristofBELTELENET1:24:365:16 11.421961SEHNIJLEN
4557.5246FVLEUGELS JasmineBEL1:24:375:16 11.41138SEFLINT
4558.15821DEVOS Dimitri1:24:375:16 11.411962SEH
4559.6574VAN BEEK TomBEL1:24:375:16 11.41558M35OUD-TURNHOUT
4560.15687VANDEPITTE Simon1:24:375:16 11.411963SEH
4561.7931VAN GOOL WimBELHP1:24:375:16 11.41572M40HERENTALS
4562.12415DE BRUECKER ThomasBELDREDGING INTERN1:24:375:16 11.411964SEHTIELRODE
4563.11617SEVENS JanBELAXIMA REFRIGERA1:24:385:16 11.41111M55HAMONT-ACHEL
4564.3906MARTENS SteveBEL1:24:385:16 11.41-STROMBEEK-BEVER
4565.18902FVANCAYZEELE BrigitteBEL1:24:385:16 11.4133F45
4566.12996NEVES RAMOS DanielBEL1:24:385:16 11.41559M35BORSBEEK
4567.6339PYLISER SamBEL1:24:385:16 11.411965SEHBOOM
4568.18872LUYTEN GeertBEL1:24:395:16 11.41-
4569.9188HEIRBAUT DagoBEL1:24:395:16 11.411966SEHDUFFEL
4570.4879VAN DEN HEEDE BenBELNEXANS1:24:395:16 11.41560M35HOFSTADE-AALST
4571.14768MICHIELS WimBEL1:24:395:16 11.41573M40
4572.5272VAN VAERENBERGH FilipBEL1:24:395:16 11.411967SEHSINT-NIKLAAS
4573.12621VAN GOETHEM PierreBELUMICORE1:24:395:16 11.41112M55HOBOKEN
4574.9697VAN DEN BERG AnnemiekNLDPWC1:24:405:16 11.41-STEENBERGEN
4575.14261ENGELS StefaanBEL1:24:405:16 11.41285M50
4576.7839VAN LOOVEREN KurtBEL1:24:405:16 11.41574M40KORBEEK-LO
4577.1539CARON AlainBEL1:24:405:16 11.4144M60KAPELLEN
4578.15846GODAERT Bart1:24:405:16 11.411968SEH
4579.9082DIELS EddyBEL1:24:405:16 11.41286M50OELEGEM
4580.3960RINGELE WimBEL1:24:415:16 11.41575M40BERCHEM
4581.13450JACOBS GeertBEL1:24:415:16 11.411969SEH
4582.7938FCABAY ChristelleBELHP1:24:415:16 11.41139SEFSCHAERBEEK
4583.5425GODSCHALK HenkNLDLYRECO1:24:415:16 11.401970SEHUTRECHT
4584.13453HAENTJENS BertBEL1:24:415:16 11.401971SEH
4585.5800TIMMERMANS GerritBEL1:24:415:16 11.40576M40ARENDONK
4586.1787FDELANGHE ElsBEL1:24:415:16 11.4034F45SCHOTEN
4587.7557CAMBRE CarloBEL1:24:425:16 11.40113M55RAVELS
4588.13699LIEVENS BartrBELTOTAL1:24:425:16 11.401972SEH
4589.14347HELSEN DidierBEL1:24:435:16 11.401973SEH
4590.19379GOOSENS LudoBEL1:24:435:16 11.4045M60
4591.18610FDE MARE TruiBEL1:24:435:16 11.4035F45
4592.14808NEYS Mario1:24:435:16 11.40577M40
4593.9442FVANMALDEGEM IlseBEL1:24:435:16 11.4052F35ANTWERPEN
4594.14061VAN PEER PaulBEL1:24:435:16 11.40287M50
4595.13729REMES GwenBELTOTAL1:24:445:16 11.40561M35
4596.7558FCAMBRE LiesbethBEL1:24:445:16 11.40140SEFTURNHOUT
4597.14497SMITS Jurgen1:24:445:16 11.401974SEH
4598.18747DE BURGGRAVE FilipBEL1:24:445:16 11.40562M35
4599.3078MERTENS FrankBELCLEARMEDIA NV1:24:445:16 11.40288M50KEERBERGEN
4600.10445VAN DORPE ToonBELAQUAFIN NV1:24:455:16 11.40578M40WETTEREN
DNF: abandon; DSQ: disqualifié; Vitesse en km/h
ChronoRace - Electronic Timing - www.chronorace.be